Milford, California
Current Conditions -  °F | °C
As of 3:15 AM on Tuesday 21 Oct 2014 (Local Time) from KRTS Reporting Station
Broken Clouds Broken Clouds  
Wind Chill: 33°   Ceiling: 3500
Heat Index: 39°   Visibility: 10mi
Dew Point: 30°   Wind: 9mph
Humidity: 70%   Direction: 320°NW
Pressure: 30.06"   Gusts: NA
Location:  40.17°N, 120.37°W
Report Text: KRTS 211015Z AUTO 32008KT 10SM BKN035 04/M01 A3006 RMK AO2
Loading
Personal Weather Stations






























Interactive Weather Map
Tropical Storm Tracking
New forecast layout! Learn more

10-Day Weather Forecast

Advertisements
Track Severe Weather on mobile